Time;durP1;ratioP1;P1;durP2;ratioP2;P2;SDS_P1;SDS_P2;PMS_P1;PMS_P2;Temp;Humidity;BMP_temperature;BMP_pressure;BME280_temperature;BME280_humidity;BME280_pressure;Samples;Min_cycle;Max_cycle;Signal;HPM_P1;HPM_P2
2021/12/02 00:00:21;;;;;;;1.77;1.67;;;7.10;97.10;;;;;;5043410;28;20049;-77
2021/12/02 00:02:48;;;;;;;2.15;1.80;;;7.00;97.00;;;;;;5042709;28;20044;-77
2021/12/02 00:05:15;;;;;;;1.90;1.75;;;7.00;97.00;;;;;;5037974;28;20053;-77
2021/12/02 00:07:41;;;;;;;2.60;1.75;;;7.00;97.00;;;;;;5037502;28;20055;-77
2021/12/02 00:10:09;;;;;;;2.17;1.80;;;7.00;97.00;;;;;;5044443;28;20517;-77
2021/12/02 00:12:37;;;;;;;2.22;1.63;;;7.00;97.00;;;;;;5041949;28;20052;-77
2021/12/02 00:15:07;;;;;;;2.80;2.10;;;7.00;97.00;;;;;;5039621;28;20049;-77
2021/12/02 00:17:38;;;;;;;2.95;1.90;;;7.00;97.10;;;;;;5038044;28;20896;-77
2021/12/02 00:23:21;;;;;;;2.33;1.83;;;7.00;97.10;;;;;;5043863;28;20531;-77
2021/12/02 00:25:48;;;;;;;1.80;1.70;;;6.90;97.00;;;;;;5036273;28;20053;-78
2021/12/02 00:28:17;;;;;;;1.70;1.60;;;6.90;97.00;;;;;;5041718;28;20050;-78
2021/12/02 00:30:44;;;;;;;1.90;1.80;;;6.90;97.10;;;;;;5041061;28;20053;-77
2021/12/02 00:33:11;;;;;;;2.05;1.80;;;6.90;97.10;;;;;;5033126;28;20049;-77
2021/12/02 00:35:38;;;;;;;2.88;1.88;;;6.90;97.10;;;;;;5041221;28;20471;-77
2021/12/02 00:38:05;;;;;;;1.92;1.80;;;6.90;97.20;;;;;;5041748;28;20562;-77
2021/12/02 00:40:35;;;;;;;2.95;2.22;;;6.90;97.20;;;;;;5043898;28;20382;-78
2021/12/02 00:43:02;;;;;;;2.03;1.70;;;6.90;97.20;;;;;;5044313;28;20446;-78
2021/12/02 00:45:32;;;;;;;2.17;1.85;;;6.90;97.20;;;;;;5043974;28;20053;-77
2021/12/02 00:48:00;;;;;;;1.75;1.65;;;6.90;97.20;;;;;;5042677;28;20056;-77
2021/12/02 00:50:27;;;;;;;2.45;1.77;;;6.80;97.20;;;;;;5042493;28;20546;-77
2021/12/02 00:52:56;;;;;;;3.15;2.10;;;6.80;97.20;;;;;;5042794;28;20052;-77
2021/12/02 00:55:26;;;;;;;2.28;2.08;;;6.80;97.20;;;;;;5040460;28;20041;-77
2021/12/02 00:57:53;;;;;;;2.97;2.00;;;6.90;97.20;;;;;;5040931;28;20059;-77
2021/12/02 01:00:20;;;;;;;1.90;1.80;;;6.80;97.20;;;;;;5041598;28;20133;-78
2021/12/02 01:02:50;;;;;;;2.95;2.15;;;6.80;97.20;;;;;;5040098;28;20057;-77
2021/12/02 01:05:18;;;;;;;2.13;1.80;;;6.80;97.30;;;;;;5041106;28;20042;-77
2021/12/02 01:07:45;;;;;;;2.00;1.90;;;6.80;97.30;;;;;;5043923;28;20048;-77
2021/12/02 01:10:11;;;;;;;2.67;2.00;;;6.80;97.30;;;;;;5042243;28;20060;-77
2021/12/02 01:12:38;;;;;;;1.92;1.75;;;6.70;97.30;;;;;;5040014;28;20049;-77
2021/12/02 01:15:07;;;;;;;1.88;1.70;;;6.70;97.20;;;;;;5037799;28;20501;-77
2021/12/02 01:17:33;;;;;;;2.00;1.80;;;6.70;97.20;;;;;;5039446;28;20424;-77
2021/12/02 01:20:01;;;;;;;2.05;1.73;;;6.70;97.20;;;;;;5043510;28;20048;-77
2021/12/02 01:22:32;;;;;;;1.85;1.75;;;6.70;97.20;;;;;;5041890;28;20541;-77
2021/12/02 01:25:00;;;;;;;3.10;1.80;;;6.70;97.20;;;;;;5042252;28;20524;-76
2021/12/02 01:27:26;;;;;;;2.75;2.30;;;6.70;97.20;;;;;;5041942;28;20058;-77
2021/12/02 01:29:54;;;;;;;2.20;1.98;;;6.60;97.20;;;;;;5042865;28;20792;-76
2021/12/02 01:32:21;;;;;;;2.10;1.90;;;6.70;97.30;;;;;;5038462;28;20045;-76
2021/12/02 01:34:50;;;;;;;2.45;1.80;;;6.70;97.30;;;;;;5042443;28;20404;-76
2021/12/02 01:37:18;;;;;;;2.10;1.95;;;6.60;97.30;;;;;;5042579;28;20060;-77
2021/12/02 01:39:45;;;;;;;1.90;1.80;;;6.60;97.30;;;;;;5040065;28;20139;-77
2021/12/02 01:42:23;;;;;;;2.42;2.10;;;6.60;97.30;;;;;;5033320;28;20061;-77
2021/12/02 01:44:52;;;;;;;2.35;1.88;;;6.60;97.30;;;;;;5043254;28;20083;-77
2021/12/02 01:47:23;;;;;;;2.50;2.00;;;6.60;97.30;;;;;;5044526;28;20114;-78
2021/12/02 01:49:54;;;;;;;1.77;1.67;;;6.60;97.40;;;;;;5047589;28;20068;-77
2021/12/02 01:52:27;;;;;;;2.58;2.05;;;6.60;97.30;;;;;;5046729;28;20110;-77
2021/12/02 01:55:05;;;;;;;3.67;1.90;;;6.60;97.40;;;;;;5039891;28;20053;-77
2021/12/02 01:57:35;;;;;;;2.55;1.80;;;6.50;97.30;;;;;;5044963;28;20049;-78
2021/12/02 02:00:08;;;;;;;2.15;1.98;;;6.50;97.30;;;;;;5047035;28;20053;-77
2021/12/02 02:02:37;;;;;;;2.05;1.85;;;6.60;97.40;;;;;;5044390;28;20057;-77
2021/12/02 02:05:08;;;;;;;2.80;1.90;;;6.50;97.30;;;;;;5046272;28;20056;-77
2021/12/02 02:07:41;;;;;;;1.98;1.80;;;6.60;97.40;;;;;;5046113;28;20075;-77
2021/12/02 02:10:08;;;;;;;1.90;1.80;;;6.60;97.40;;;;;;5040992;28;20057;-77
2021/12/02 02:12:35;;;;;;;2.65;1.88;;;6.50;97.40;;;;;;5044055;28;20048;-77
2021/12/02 02:15:03;;;;;;;1.60;1.50;;;6.50;97.40;;;;;;5046417;28;20041;-77
2021/12/02 02:17:34;;;;;;;1.77;1.67;;;6.50;97.40;;;;;;5044410;28;20130;-77
2021/12/02 02:20:02;;;;;;;3.17;1.80;;;6.50;97.40;;;;;;5045182;28;20058;-77
2021/12/02 02:22:30;;;;;;;3.55;2.10;;;6.50;97.40;;;;;;5041760;28;20049;-77
2021/12/02 02:24:56;;;;;;;2.38;1.88;;;6.50;97.40;;;;;;5046375;28;20659;-76
2021/12/02 02:27:23;;;;;;;3.08;1.90;;;6.50;97.40;;;;;;5045127;28;20068;-77
2021/12/02 02:29:50;;;;;;;2.17;1.88;;;6.50;97.40;;;;;;5044767;28;20055;-77
2021/12/02 02:32:18;;;;;;;1.85;1.75;;;6.50;97.30;;;;;;5045733;28;20045;-77
2021/12/02 02:34:44;;;;;;;1.88;1.73;;;6.50;97.30;;;;;;5048265;28;20053;-77
2021/12/02 02:37:11;;;;;;;2.13;1.60;;;6.40;97.30;;;;;;5044808;28;20425;-77
2021/12/02 02:39:39;;;;;;;4.43;2.10;;;6.40;97.30;;;;;;5038428;28;20053;-77
2021/12/02 02:42:09;;;;;;;1.95;1.80;;;6.40;97.30;;;;;;5036834;28;20479;-78
2021/12/02 02:44:36;;;;;;;2.13;1.88;;;6.40;97.20;;;;;;5040664;28;20049;-77
2021/12/02 02:47:04;;;;;;;1.65;1.52;;;6.50;97.30;;;;;;5040495;28;20052;-77
2021/12/02 02:49:30;;;;;;;1.80;1.60;;;6.40;97.20;;;;;;5047282;28;20045;-77
2021/12/02 02:51:57;;;;;;;2.33;2.00;;;6.40;97.20;;;;;;5045534;28;20074;-77
2021/12/02 02:54:24;;;;;;;2.20;1.85;;;6.40;97.20;;;;;;5041912;28;20048;-77
2021/12/02 02:56:57;;;;;;;2.17;1.70;;;6.40;97.20;;;;;;5043740;28;20045;-77
2021/12/02 02:59:32;;;;;;;1.85;1.70;;;6.40;97.20;;;;;;5037933;28;20062;-77
2021/12/02 03:02:15;;;;;;;1.77;1.65;;;6.40;97.20;;;;;;5038533;28;20504;-77
2021/12/02 03:04:47;;;;;;;2.50;1.70;;;6.40;97.20;;;;;;5044052;28;20049;-77
2021/12/02 03:07:21;;;;;;;1.98;1.80;;;6.40;97.20;;;;;;5045254;28;20061;-77
2021/12/02 03:09:58;;;;;;;2.92;1.73;;;6.40;97.20;;;;;;5038726;28;20059;-77
2021/12/02 03:12:31;;;;;;;;;;;6.40;97.20;;;;;;5047216;28;20135;-77
2021/12/02 03:17:48;;;;;;;1.88;1.67;;;6.30;97.10;;;;;;4982884;28;20128;-77
2021/12/02 03:20:15;;;;;;;2.30;1.67;;;6.30;97.10;;;;;;5043657;28;20064;-77
2021/12/02 03:22:43;;;;;;;2.50;1.70;;;6.30;97.10;;;;;;5044883;28;20060;-77
2021/12/02 03:25:10;;;;;;;1.90;1.80;;;6.30;97.10;;;;;;5041858;28;20140;-77
2021/12/02 03:27:38;;;;;;;1.55;1.42;;;6.30;97.10;;;;;;5042804;28;20565;-77
2021/12/02 03:30:07;;;;;;;1.83;1.50;;;6.30;97.10;;;;;;5038250;28;20053;-77
2021/12/02 03:32:34;;;;;;;1.70;1.60;;;6.30;97.10;;;;;;5041305;28;20127;-77
2021/12/02 03:35:01;;;;;;;1.80;1.70;;;6.30;97.10;;;;;;5041192;28;20072;-77
2021/12/02 03:37:28;;;;;;;1.63;1.50;;;6.30;97.10;;;;;;5046191;28;20053;-77
2021/12/02 03:39:54;;;;;;;2.15;1.60;;;6.30;97.10;;;;;;5043712;28;20057;-77
2021/12/02 03:42:21;;;;;;;2.72;2.03;;;6.30;97.10;;;;;;5042256;28;20505;-77
2021/12/02 03:44:49;;;;;;;2.35;1.50;;;6.30;97.10;;;;;;5041258;28;20405;-78
2021/12/02 03:47:16;;;;;;;2.67;1.60;;;6.20;97.00;;;;;;5041633;28;20052;-77
2021/12/02 03:49:42;;;;;;;2.47;1.60;;;6.30;97.10;;;;;;5043833;28;20051;-77
2021/12/02 03:52:09;;;;;;;3.30;1.50;;;6.20;97.00;;;;;;5045438;28;20052;-77
2021/12/02 03:54:36;;;;;;;2.00;1.50;;;6.20;97.00;;;;;;5040248;28;20808;-77
2021/12/02 03:57:03;;;;;;;1.60;1.50;;;6.30;97.10;;;;;;5039777;28;20053;-78
2021/12/02 03:59:32;;;;;;;1.60;1.42;;;6.20;97.10;;;;;;5040221;28;20045;-77
2021/12/02 04:02:00;;;;;;;1.85;1.75;;;6.20;97.10;;;;;;5033744;28;20421;-77
2021/12/02 04:04:26;;;;;;;1.88;1.58;;;6.20;97.10;;;;;;5043037;28;20060;-77
2021/12/02 04:06:53;;;;;;;1.63;1.52;;;6.20;97.10;;;;;;5042669;28;20134;-77
2021/12/02 04:09:21;;;;;;;2.60;1.70;;;6.20;97.10;;;;;;5040947;28;20309;-77
2021/12/02 04:11:54;;;;;;;1.83;1.50;;;6.20;97.10;;;;;;5041973;28;20056;-77
2021/12/02 04:14:25;;;;;;;1.70;1.60;;;6.20;97.00;;;;;;5043266;28;20048;-77
2021/12/02 04:16:53;;;;;;;2.33;1.70;;;6.20;97.00;;;;;;5042132;28;20044;-77
2021/12/02 04:19:22;;;;;;;2.25;1.70;;;6.20;97.00;;;;;;5040837;28;20049;-77
2021/12/02 04:21:48;;;;;;;2.92;1.60;;;6.20;96.90;;;;;;5045156;28;20056;-77
2021/12/02 04:24:15;;;;;;;1.73;1.63;;;6.20;96.90;;;;;;5037338;28;20076;-77
2021/12/02 04:26:43;;;;;;;2.08;1.77;;;6.20;96.90;;;;;;5040878;28;20060;-77
2021/12/02 04:29:10;;;;;;;2.28;1.90;;;6.20;96.90;;;;;;5040791;28;20045;-78
2021/12/02 04:31:37;;;;;;;2.30;1.80;;;6.20;97.00;;;;;;5038646;28;20052;-77
2021/12/02 04:34:04;;;;;;;2.83;1.60;;;6.20;96.90;;;;;;5040840;28;20049;-77
2021/12/02 04:36:32;;;;;;;2.92;1.50;;;6.20;96.90;;;;;;5043538;28;20045;-77
2021/12/02 04:38:59;;;;;;;2.65;1.60;;;6.20;96.90;;;;;;5040585;28;20102;-77
2021/12/02 04:41:26;;;;;;;1.90;1.70;;;6.20;96.90;;;;;;5040187;28;20708;-77
2021/12/02 04:43:52;;;;;;;5.07;2.10;;;6.10;96.80;;;;;;5041977;28;20821;-78
2021/12/02 04:46:19;;;;;;;1.92;1.83;;;6.10;96.80;;;;;;5038172;28;20059;-77
2021/12/02 04:48:46;;;;;;;3.33;1.80;;;6.10;96.80;;;;;;5041631;28;20060;-77
2021/12/02 04:51:12;;;;;;;2.72;1.83;;;6.10;96.80;;;;;;5038249;28;20091;-77
2021/12/02 04:53:40;;;;;;;1.75;1.60;;;6.10;96.90;;;;;;5039397;28;20060;-77
2021/12/02 04:56:07;;;;;;;2.17;1.90;;;6.10;96.90;;;;;;5039192;28;20087;-77
2021/12/02 04:58:34;;;;;;;2.35;1.88;;;6.10;96.90;;;;;;5040221;28;20061;-77
2021/12/02 05:01:01;;;;;;;2.22;1.67;;;6.20;97.00;;;;;;5040303;28;20066;-77
2021/12/02 05:03:27;;;;;;;1.75;1.65;;;6.10;96.90;;;;;;5038461;28;20056;-77
2021/12/02 05:05:54;;;;;;;3.95;1.85;;;6.10;96.90;;;;;;5039876;28;20053;-77
2021/12/02 05:08:21;;;;;;;2.95;1.73;;;6.10;96.90;;;;;;5042622;28;20118;-77
2021/12/02 05:10:49;;;;;;;2.72;1.60;;;6.10;96.90;;;;;;5042050;28;20052;-77
2021/12/02 05:13:16;;;;;;;1.95;1.70;;;6.10;96.90;;;;;;5038740;28;20061;-77
2021/12/02 05:15:42;;;;;;;1.55;1.45;;;6.10;96.90;;;;;;5040735;28;20040;-77
2021/12/02 05:18:09;;;;;;;2.78;1.70;;;6.10;96.80;;;;;;5037841;28;20048;-77
2021/12/02 05:20:36;;;;;;;2.92;1.90;;;6.10;96.80;;;;;;5042169;28;20075;-77
2021/12/02 05:23:03;;;;;;;3.13;1.70;;;6.10;96.80;;;;;;5039160;28;20053;-77
2021/12/02 05:25:30;;;;;;;2.53;1.83;;;6.10;96.80;;;;;;5039417;28;20461;-77
2021/12/02 05:27:58;;;;;;;2.25;1.50;;;6.10;96.70;;;;;;5043561;28;20079;-76
2021/12/02 05:30:24;;;;;;;3.08;2.13;;;6.10;96.70;;;;;;5041835;28;20065;-77
2021/12/02 05:32:51;;;;;;;1.95;1.63;;;6.10;96.70;;;;;;5035718;28;20788;-77
2021/12/02 05:35:18;;;;;;;3.47;1.70;;;6.10;96.70;;;;;;5040862;28;20075;-77
2021/12/02 05:37:44;;;;;;;3.30;1.83;;;6.10;96.70;;;;;;5045615;28;20073;-77
2021/12/02 05:40:12;;;;;;;2.75;1.50;;;6.00;96.60;;;;;;5040883;28;20053;-76
2021/12/02 05:42:39;;;;;;;3.78;1.60;;;6.10;97.00;;;;;;5047624;28;20095;-76
2021/12/02 05:45:08;;;;;;;1.77;1.65;;;6.10;96.70;;;;;;5045269;28;20087;-77
2021/12/02 05:47:35;;;;;;;4.30;1.73;;;6.10;96.70;;;;;;5037968;28;20053;-78
2021/12/02 05:50:01;;;;;;;2.65;1.90;;;6.00;96.60;;;;;;5039224;28;20394;-77
2021/12/02 05:52:28;;;;;;;2.05;1.92;;;6.00;96.60;;;;;;5043258;28;20049;-77
2021/12/02 05:54:55;;;;;;;2.67;1.70;;;6.00;96.70;;;;;;5041096;28;20049;-75
2021/12/02 05:57:21;;;;;;;2.25;1.60;;;6.00;96.70;;;;;;5041389;28;20516;-77
2021/12/02 05:59:48;;;;;;;2.92;2.38;;;6.00;96.70;;;;;;5038782;28;20056;-77
2021/12/02 06:02:16;;;;;;;2.22;1.77;;;6.00;96.70;;;;;;5033884;28;20060;-76
2021/12/02 06:04:45;;;;;;;1.88;1.63;;;6.10;96.80;;;;;;5040433;28;20052;-77
2021/12/02 06:07:12;;;;;;;2.20;1.80;;;6.00;96.70;;;;;;5040613;28;20159;-76
2021/12/02 06:09:39;;;;;;;1.88;1.73;;;6.00;96.70;;;;;;5033186;28;20160;-77
2021/12/02 06:12:06;;;;;;;2.30;1.80;;;6.00;96.70;;;;;;5038310;28;20053;-77
2021/12/02 06:14:33;;;;;;;2.90;1.92;;;6.00;96.80;;;;;;5039818;28;20053;-77
2021/12/02 06:17:00;;;;;;;4.60;1.70;;;6.00;96.80;;;;;;5039811;28;20409;-77
2021/12/02 06:19:27;;;;;;;2.97;1.77;;;6.00;96.80;;;;;;5041708;28;20702;-76
2021/12/02 06:21:55;;;;;;;1.65;1.50;;;6.00;96.80;;;;;;5041908;28;20045;-77
2021/12/02 06:24:28;;;;;;;3.13;1.70;;;6.00;96.80;;;;;;5040399;28;20056;-77
2021/12/02 06:26:55;;;;;;;2.90;2.03;;;6.00;96.80;;;;;;5038688;28;20048;-77
2021/12/02 06:29:22;;;;;;;2.55;1.90;;;5.90;96.80;;;;;;5040503;28;20576;-76
2021/12/02 06:31:49;;;;;;;3.28;1.70;;;6.00;96.80;;;;;;5041989;28;20473;-77
2021/12/02 06:34:16;;;;;;;2.60;1.83;;;5.90;96.70;;;;;;5042723;28;20484;-77
2021/12/02 06:36:44;;;;;;;2.95;1.80;;;5.90;96.80;;;;;;5042421;28;20052;-76
2021/12/02 06:39:10;;;;;;;2.17;1.90;;;6.00;96.80;;;;;;5041572;28;20061;-77
2021/12/02 06:41:37;;;;;;;3.47;2.20;;;6.00;96.80;;;;;;5043331;28;20049;-77
2021/12/02 06:44:04;;;;;;;2.05;1.88;;;5.90;96.70;;;;;;5038928;28;20079;-77
2021/12/02 06:46:31;;;;;;;3.22;1.92;;;5.90;96.70;;;;;;5042233;28;20045;-77
2021/12/02 06:48:57;;;;;;;2.40;1.75;;;5.90;96.70;;;;;;5044704;28;20052;-77
2021/12/02 06:51:24;;;;;;;3.45;2.00;;;5.90;96.70;;;;;;5046442;28;20102;-77
2021/12/02 06:53:52;;;;;;;3.83;2.10;;;5.90;97.10;;;;;;5043079;28;20064;-77
2021/12/02 06:56:19;;;;;;;2.20;2.00;;;5.90;96.70;;;;;;5039084;28;20108;-78
2021/12/02 06:58:46;;;;;;;3.10;1.90;;;5.90;96.70;;;;;;5042221;28;20272;-77
2021/12/02 07:01:13;;;;;;;3.05;2.00;;;5.90;96.80;;;;;;5039279;28;20122;-77
2021/12/02 07:03:40;;;;;;;2.20;2.00;;;5.90;96.70;;;;;;5045044;28;20053;-78
2021/12/02 07:06:07;;;;;;;3.25;2.20;;;5.90;96.80;;;;;;5043264;28;20067;-77
2021/12/02 07:08:34;;;;;;;2.40;1.77;;;5.90;96.80;;;;;;5042398;28;20056;-77
2021/12/02 07:11:05;;;;;;;1.90;1.80;;;5.90;96.80;;;;;;5041557;28;20139;-77
2021/12/02 07:13:32;;;;;;;3.40;1.90;;;5.90;96.80;;;;;;5039914;28;20083;-77
2021/12/02 07:16:00;;;;;;;3.55;2.20;;;5.90;96.80;;;;;;5040958;28;20057;-77
2021/12/02 07:18:26;;;;;;;2.38;2.00;;;5.90;96.80;;;;;;5041340;28;20144;-77
2021/12/02 07:20:53;;;;;;;2.63;1.85;;;5.90;96.80;;;;;;5042777;28;20056;-77
2021/12/02 07:23:22;;;;;;;3.40;2.25;;;5.80;96.70;;;;;;5038962;28;20297;-77
2021/12/02 07:25:50;;;;;;;2.97;2.13;;;5.90;96.70;;;;;;5036298;28;20095;-77
2021/12/02 07:28:19;;;;;;;2.67;2.10;;;5.90;96.70;;;;;;5043327;28;20049;-77
2021/12/02 07:30:52;;;;;;;3.20;2.25;;;5.90;96.70;;;;;;5037262;28;20052;-77
2021/12/02 07:33:20;;;;;;;2.33;2.17;;;5.90;96.70;;;;;;5041951;28;20783;-75
2021/12/02 07:35:47;;;;;;;3.58;2.20;;;5.90;96.70;;;;;;5043319;28;20053;-77
2021/12/02 07:38:14;;;;;;;2.15;2.00;;;5.90;96.70;;;;;;5041064;28;20292;-77
2021/12/02 07:40:41;;;;;;;2.70;2.50;;;5.80;96.70;;;;;;5042252;28;20052;-77
2021/12/02 07:43:08;;;;;;;3.67;2.00;;;5.90;96.70;;;;;;5043528;28;20057;-77
2021/12/02 07:45:36;;;;;;;3.13;2.25;;;5.90;96.70;;;;;;5040172;28;20794;-77
2021/12/02 07:48:04;;;;;;;3.35;2.15;;;5.80;96.70;;;;;;5038917;28;20051;-77
2021/12/02 07:50:32;;;;;;;2.60;2.30;;;5.90;96.70;;;;;;5044442;28;20063;-77
2021/12/02 07:53:00;;;;;;;3.63;2.50;;;5.80;96.70;;;;;;5043326;28;20056;-77
2021/12/02 07:55:29;;;;;;;2.42;2.22;;;5.90;96.80;;;;;;5038936;28;20049;-77
2021/12/02 07:57:56;;;;;;;2.67;2.20;;;5.80;96.70;;;;;;5037075;28;20049;-77
2021/12/02 08:00:25;;;;;;;2.28;2.08;;;5.90;96.70;;;;;;5040212;28;20057;-76
2021/12/02 08:02:54;;;;;;;2.72;2.50;;;5.90;96.70;;;;;;5038894;28;20052;-77
2021/12/02 08:05:23;;;;;;;2.92;2.28;;;5.90;96.70;;;;;;5040325;28;20045;-77
2021/12/02 08:07:51;;;;;;;2.25;2.10;;;5.90;96.80;;;;;;5040166;28;20066;-77
2021/12/02 08:10:18;;;;;;;1.98;1.83;;;5.90;96.80;;;;;;5045579;28;20103;-77
2021/12/02 08:12:49;;;;;;;2.20;2.00;;;5.90;96.80;;;;;;5048804;28;20049;-78
2021/12/02 08:15:18;;;;;;;2.95;2.13;;;5.90;96.80;;;;;;5049770;28;20049;-78
2021/12/02 08:17:45;;;;;;;2.35;2.10;;;5.80;96.80;;;;;;5048216;28;20053;-78
2021/12/02 08:20:13;;;;;;;2.70;2.10;;;5.90;96.80;;;;;;5048420;28;20061;-78
2021/12/02 08:22:40;;;;;;;2.08;1.88;;;5.90;96.80;;;;;;5046164;28;20053;-78
2021/12/02 08:25:08;;;;;;;2.75;1.90;;;5.90;96.90;;;;;;5046173;28;20055;-77
2021/12/02 08:27:35;;;;;;;2.45;2.20;;;5.90;96.90;;;;;;5048939;28;20096;-78
2021/12/02 08:30:04;;;;;;;2.40;2.13;;;5.90;96.90;;;;;;5043247;28;20056;-78
2021/12/02 08:32:31;;;;;;;2.40;2.20;;;5.90;96.90;;;;;;5044437;28;20053;-78
2021/12/02 08:34:59;;;;;;;3.10;2.20;;;5.90;97.00;;;;;;5045632;28;20136;-77
2021/12/02 08:37:30;;;;;;;2.47;2.15;;;5.90;96.90;;;;;;5033807;28;20045;-78
2021/12/02 08:39:59;;;;;;;2.75;2.13;;;5.90;96.90;;;;;;5046112;28;20092;-79
2021/12/02 08:42:26;;;;;;;2.78;2.10;;;5.90;96.90;;;;;;5044562;28;20053;-79
2021/12/02 08:44:54;;;;;;;3.90;2.10;;;5.80;97.20;;;;;;5043498;28;20060;-80
2021/12/02 08:47:22;;;;;;;2.20;2.10;;;5.90;96.90;;;;;;5042107;28;20481;-80
2021/12/02 08:49:52;;;;;;;2.67;1.90;;;5.80;96.90;;;;;;5045326;28;20049;-80
2021/12/02 08:52:20;;;;;;;2.20;1.98;;;5.80;96.90;;;;;;5042967;28;20053;-80
2021/12/02 08:54:48;;;;;;;2.20;2.00;;;5.80;96.90;;;;;;5040774;28;20088;-80
2021/12/02 08:57:15;;;;;;;2.05;1.90;;;5.80;96.90;;;;;;5043554;28;20539;-80
2021/12/02 08:59:43;;;;;;;2.20;2.00;;;5.80;96.90;;;;;;5045705;28;20060;-79
2021/12/02 09:02:10;;;;;;;1.90;1.80;;;5.80;96.90;;;;;;5023968;28;20049;-79
2021/12/02 09:04:37;;;;;;;2.17;1.92;;;5.80;96.90;;;;;;5023933;28;20102;-79
2021/12/02 09:07:04;;;;;;;2.08;1.90;;;5.80;96.90;;;;;;5023832;28;20056;-79
2021/12/02 09:09:31;;;;;;;2.97;2.30;;;5.80;96.90;;;;;;5019062;28;20053;-79
2021/12/02 09:12:00;;;;;;;2.42;1.95;;;5.80;97.00;;;;;;5020421;28;20602;-79
2021/12/02 09:14:26;;;;;;;1.98;1.83;;;5.70;97.00;;;;;;5020766;28;20071;-78
2021/12/02 09:16:53;;;;;;;3.13;2.20;;;5.80;97.00;;;;;;5020369;28;20053;-78
2021/12/02 09:19:20;;;;;;;2.50;2.30;;;5.70;97.00;;;;;;5027130;28;20048;-79
2021/12/02 09:21:47;;;;;;;3.53;2.00;;;5.70;97.10;;;;;;5026640;28;20046;-79
2021/12/02 09:24:18;;;;;;;3.55;2.60;;;5.70;97.10;;;;;;5028001;28;20064;-79
2021/12/02 09:26:45;;;;;;;2.53;2.30;;;5.70;97.10;;;;;;5025758;28;20053;-78
2021/12/02 09:29:14;;;;;;;3.00;2.38;;;5.70;97.10;;;;;;5022630;28;20058;-78
2021/12/02 09:31:41;;;;;;;3.17;2.53;;;5.70;97.50;;;;;;5020707;28;20056;-79
2021/12/02 09:34:08;;;;;;;3.25;2.30;;;5.70;97.20;;;;;;5025374;28;20053;-79
2021/12/02 09:36:34;;;;;;;2.70;2.30;;;5.70;97.20;;;;;;5025529;28;20049;-78
2021/12/02 09:39:02;;;;;;;2.53;2.33;;;5.70;97.20;;;;;;5024878;28;20045;-79
2021/12/02 09:41:29;;;;;;;3.05;2.40;;;5.70;97.20;;;;;;5024449;28;20045;-78
2021/12/02 09:43:56;;;;;;;2.55;2.30;;;5.70;97.20;;;;;;5025377;28;20068;-78
2021/12/02 09:46:24;;;;;;;2.42;2.22;;;5.70;97.30;;;;;;5024493;28;20053;-78
2021/12/02 09:48:54;;;;;;;3.85;2.55;;;5.70;97.30;;;;;;5025078;28;20048;-79
2021/12/02 09:51:23;;;;;;;3.55;2.40;;;5.70;97.30;;;;;;5025258;28;20049;-79
2021/12/02 09:53:54;;;;;;;3.20;2.53;;;5.70;97.30;;;;;;5026167;28;20049;-78
2021/12/02 09:56:24;;;;;;;3.80;2.70;;;5.70;97.30;;;;;;5021961;28;20059;-79
2021/12/02 09:58:53;;;;;;;3.08;2.60;;;5.70;97.30;;;;;;5025522;28;20072;-79
2021/12/02 10:01:23;;;;;;;3.95;3.10;;;5.70;97.30;;;;;;5033032;28;20111;-78
2021/12/02 10:03:58;;;;;;;3.28;2.85;;;5.70;97.40;;;;;;5039410;28;20340;-79
2021/12/02 10:06:29;;;;;;;2.67;2.47;;;5.70;97.40;;;;;;5047022;28;20053;-77
2021/12/02 10:09:04;;;;;;;2.67;2.47;;;5.70;97.40;;;;;;5047682;28;20044;-77
2021/12/02 10:11:36;;;;;;;2.97;2.50;;;5.70;97.40;;;;;;5045693;28;20150;-78
2021/12/02 10:14:18;;;;;;;3.58;2.50;;;5.70;97.40;;;;;;5043980;28;20045;-78
2021/12/02 10:16:46;;;;;;;3.38;2.47;;;5.70;97.40;;;;;;5033857;28;20061;-78
2021/12/02 10:19:19;;;;;;;2.63;2.42;;;5.70;97.40;;;;;;5027307;28;20060;-78
2021/12/02 10:21:51;;;;;;;3.10;2.65;;;5.70;97.50;;;;;;5027077;28;20072;-78
2021/12/02 10:24:21;;;;;;;2.88;2.40;;;5.70;97.50;;;;;;5029611;28;20136;-78
2021/12/02 10:26:51;;;;;;;2.70;2.50;;;5.70;97.50;;;;;;5022809;28;20056;-78
2021/12/02 10:29:20;;;;;;;2.50;2.30;;;5.70;97.50;;;;;;5030135;28;20140;-78
2021/12/02 10:32:05;;;;;;;2.55;2.35;;;5.70;97.50;;;;;;5031779;28;20050;-79
2021/12/02 10:34:45;;;;;;;2.72;2.45;;;5.70;97.50;;;;;;5033945;28;20444;-78
2021/12/02 10:37:13;;;;;;;2.47;2.28;;;5.70;97.50;;;;;;5034615;28;20057;-79
2021/12/02 10:39:39;;;;;;;2.70;2.50;;;5.70;97.50;;;;;;5035148;28;20111;-79
2021/12/02 10:42:08;;;;;;;2.53;2.33;;;5.70;97.60;;;;;;5030555;28;20053;-78
2021/12/02 10:44:36;;;;;;;2.45;2.25;;;5.70;97.50;;;;;;5026566;28;20049;-77
2021/12/02 10:47:05;;;;;;;2.67;2.33;;;5.70;97.50;;;;;;5040587;28;20052;-78
2021/12/02 10:49:37;;;;;;;2.38;2.13;;;5.70;97.50;;;;;;5048304;28;20556;-78
2021/12/02 10:52:06;;;;;;;2.70;2.50;;;5.70;97.50;;;;;;5045267;28;20057;-77
2021/12/02 10:54:34;;;;;;;2.45;2.25;;;5.70;97.50;;;;;;5044960;28;20102;-78
2021/12/02 10:57:07;;;;;;;2.30;2.10;;;5.70;97.50;;;;;;5047537;28;20053;-77
2021/12/02 10:59:41;;;;;;;2.67;2.47;;;5.70;97.60;;;;;;5046962;28;20619;-77
2021/12/02 11:02:16;;;;;;;2.30;2.10;;;5.70;97.50;;;;;;5024810;28;20055;-77
2021/12/02 11:04:47;;;;;;;2.22;2.00;;;5.70;97.50;;;;;;5028777;28;20567;-78
2021/12/02 11:07:21;;;;;;;2.15;1.95;;;5.70;97.50;;;;;;5025286;28;20053;-77
2021/12/02 11:09:50;;;;;;;2.25;1.95;;;5.70;97.50;;;;;;5027837;28;20049;-77
2021/12/02 11:12:19;;;;;;;2.20;2.00;;;5.70;97.50;;;;;;5025037;28;20060;-78
2021/12/02 11:15:02;;;;;;;2.65;2.03;;;5.70;97.50;;;;;;5026957;28;20059;-78
2021/12/02 11:17:31;;;;;;;1.95;1.85;;;5.70;97.50;;;;;;5022651;28;20057;-77
2021/12/02 11:20:02;;;;;;;2.10;1.90;;;5.70;97.50;;;;;;5028240;28;20053;-77
2021/12/02 11:22:30;;;;;;;1.92;1.83;;;5.70;97.50;;;;;;5023391;28;20046;-77
2021/12/02 11:24:58;;;;;;;2.15;2.00;;;5.70;97.50;;;;;;5032450;28;20121;-77
2021/12/02 11:27:27;;;;;;;1.98;1.80;;;5.70;97.50;;;;;;5031460;28;20053;-78
2021/12/02 11:29:59;;;;;;;2.00;1.80;;;5.70;97.50;;;;;;5031569;28;20115;-78
2021/12/02 11:32:32;;;;;;;1.80;1.70;;;5.70;97.50;;;;;;5030421;28;20048;-78
2021/12/02 11:35:03;;;;;;;1.85;1.75;;;5.70;97.50;;;;;;5027539;28;20076;-78
2021/12/02 11:37:31;;;;;;;2.20;1.90;;;5.70;97.50;;;;;;5022130;28;20056;-76
2021/12/02 11:39:58;;;;;;;2.33;2.15;;;5.70;97.50;;;;;;5020428;28;20053;-77
2021/12/02 11:42:25;;;;;;;2.67;2.00;;;5.70;97.50;;;;;;5022219;28;20049;-75
2021/12/02 11:44:52;;;;;;;2.20;2.10;;;5.70;97.50;;;;;;5018256;28;20046;-77
2021/12/02 11:47:19;;;;;;;2.47;2.30;;;5.70;97.50;;;;;;5016027;28;20064;-77
2021/12/02 11:49:46;;;;;;;2.33;2.13;;;5.70;97.50;;;;;;5015227;28;20782;-77
2021/12/02 11:52:14;;;;;;;2.40;2.20;;;5.70;97.50;;;;;;5018388;28;20452;-78
2021/12/02 11:54:41;;;;;;;2.50;2.30;;;5.70;97.50;;;;;;5021766;28;20262;-78
2021/12/02 11:57:08;;;;;;;2.15;2.05;;;5.70;97.50;;;;;;5021906;28;20048;-78
2021/12/02 11:59:35;;;;;;;2.70;2.50;;;5.70;97.50;;;;;;5027453;28;20203;-79
2021/12/02 12:02:02;;;;;;;2.47;2.28;;;5.70;97.50;;;;;;5026022;28;20055;-78
2021/12/02 12:04:28;;;;;;;2.55;2.35;;;5.70;97.50;;;;;;5024626;28;20064;-78
2021/12/02 12:07:09;;;;;;;2.90;2.38;;;5.70;97.50;;;;;;5025909;28;20433;-78
2021/12/02 12:09:37;;;;;;;2.30;2.10;;;5.70;97.50;;;;;;5025793;28;20056;-78
2021/12/02 12:12:05;;;;;;;2.55;2.35;;;5.70;97.50;;;;;;5024241;28;20212;-78
2021/12/02 12:14:37;;;;;;;2.47;2.28;;;5.80;97.50;;;;;;5023224;28;20057;-78
2021/12/02 12:17:10;;;;;;;2.60;2.40;;;5.80;97.50;;;;;;5022038;28;20642;-78
2021/12/02 12:19:42;;;;;;;2.28;2.08;;;5.80;97.50;;;;;;5021671;28;20604;-77
2021/12/02 12:22:13;;;;;;;2.38;2.17;;;5.80;97.50;;;;;;5021465;28;20087;-78
2021/12/02 12:24:47;;;;;;;2.05;1.80;;;5.80;97.40;;;;;;5024053;28;20065;-78
2021/12/02 12:27:17;;;;;;;2.35;1.90;;;5.70;97.40;;;;;;5024385;28;20065;-78
2021/12/02 12:29:46;;;;;;;2.80;2.10;;;5.80;97.40;;;;;;5026856;28;20041;-76
2021/12/02 12:32:42;;;;;;;1.95;1.85;;;5.80;97.40;;;;;;5037734;28;20140;-75
2021/12/02 12:35:17;;;;;;;2.05;1.90;;;5.70;97.40;;;;;;5039733;28;20056;-76
2021/12/02 12:37:53;;;;;;;2.00;1.85;;;5.80;97.40;;;;;;5040641;28;20049;-76
2021/12/02 12:40:28;;;;;;;2.25;2.00;;;5.70;97.30;;;;;;5038187;28;20575;-77
2021/12/02 12:43:36;;;;;;;2.33;1.83;;;5.80;97.30;;;;;;5040999;28;20053;-77
2021/12/02 12:46:13;;;;;;;2.25;2.05;;;5.70;97.30;;;;;;5035513;28;20514;-76
2021/12/02 12:48:40;;;;;;;1.85;1.70;;;5.80;97.30;;;;;;5038004;28;20049;-78
2021/12/02 12:51:12;;;;;;;2.35;1.95;;;5.80;97.30;;;;;;5047042;28;20432;-78
2021/12/02 12:53:43;;;;;;;1.83;1.73;;;5.70;97.20;;;;;;5041463;28;20069;-78
2021/12/02 12:56:13;;;;;;;1.98;1.77;;;5.70;97.10;;;;;;5045249;28;20052;-78
2021/12/02 12:59:11;;;;;;;1.90;1.80;;;5.70;97.10;;;;;;5043798;28;20048;-78
2021/12/02 13:01:39;;;;;;;;;;;5.70;97.10;;;;;;5036688;28;20057;-78
2021/12/02 13:04:13;;;;;;;1.60;1.50;;;5.70;97.10;;;;;;5042767;28;20388;-77
2021/12/02 13:06:59;;;;;;;1.92;1.80;;;5.80;97.10;;;;;;5046341;28;20053;-77
2021/12/02 13:09:56;;;;;;;2.00;1.50;;;5.70;97.00;;;;;;5047144;28;20045;-78
2021/12/02 13:12:49;;;;;;;1.65;1.55;;;5.70;97.00;;;;;;5045375;28;20048;-78